Minneapolis, Minnesota
Traffic Map
Current Weather Conditions
Minneapolis, Minnesota
Scattered Clouds
Scattered Clouds
23°
Feels Like: 23°
Wind Chill: 23° Ceiling: Unl
Heat Index: 23° Visibility: 10mi
Dew Point: 10° Wind: 9mph
Humidity: 43% Direction: 170° (S)
Pressure: 29.99in Gusts: 0mph
Raw Report DataKMSP 182153Z 17008KT 10SM SCT055 23/10 A2999 RMK AO2 SLP156 T02330100
Traffic Incident Summary
Active as of:
Severity:
Category:
InformationThere was an issue retrieving the traffic information for this location. Please try a different location or try again shortly.
Advertisements
Track Severe Weather on mobile